createdAt,value
2023-12-29T00:01:19.578Z,100897.78
2023-12-29T00:03:49.133Z,100897.88
2023-12-29T00:06:17.233Z,100891.81
2023-12-29T00:08:45.785Z,100891.81
2023-12-29T00:11:19.492Z,100884.16
2023-12-29T00:13:47.920Z,100897.44
2023-12-29T00:16:16.974Z,100896.84
2023-12-29T00:18:45.708Z,100893.63
2023-12-29T00:21:17.575Z,100885.84
2023-12-29T00:23:46.908Z,100883.81
2023-12-29T00:26:15.026Z,100868.31
2023-12-29T00:28:43.324Z,100864.28
2023-12-29T00:31:11.845Z,100877.69
2023-12-29T00:33:40.338Z,100872.25
2023-12-29T00:36:08.704Z,100860.72
2023-12-29T00:38:38.391Z,100865.75
2023-12-29T00:41:07.275Z,100863.56
2023-12-29T00:43:35.328Z,100870.03
2023-12-29T00:46:04.719Z,100873.53
2023-12-29T00:48:33.264Z,100881.09
2023-12-29T00:51:03.836Z,100870.91
2023-12-29T00:53:33.139Z,100868.16
2023-12-29T00:56:03.034Z,100866.03
2023-12-29T00:58:31.347Z,100861.88
2023-12-29T01:00:59.620Z,100860.28
2023-12-29T01:03:28.182Z,100855.22
2023-12-29T01:05:56.368Z,100857.31
2023-12-29T01:08:24.606Z,100860.53
2023-12-29T01:10:52.826Z,100853.22
2023-12-29T01:13:22.575Z,100866.53
2023-12-29T01:15:50.728Z,100864.72
2023-12-29T01:18:19.403Z,100863.28
2023-12-29T01:20:47.558Z,100872.88
2023-12-29T01:23:15.852Z,100868.44
2023-12-29T01:25:44.102Z,100872.56
2023-12-29T01:28:12.386Z,100875.63
2023-12-29T01:30:41.965Z,100875.25
2023-12-29T01:33:10.702Z,100873.00
2023-12-29T01:35:39.391Z,100866.28
2023-12-29T01:38:07.375Z,100857.53
2023-12-29T01:40:45.034Z,100857.44
2023-12-29T01:43:13.162Z,100854.22
2023-12-29T01:45:49.477Z,100857.09
2023-12-29T01:48:25.525Z,100850.34
2023-12-29T01:50:55.447Z,100848.47
2023-12-29T01:53:34.134Z,100847.81
2023-12-29T01:56:09.803Z,100846.84
2023-12-29T01:58:38.431Z,100844.00
2023-12-29T02:01:09.538Z,100835.88
2023-12-29T02:03:39.188Z,100832.72
2023-12-29T02:06:08.641Z,100830.47
2023-12-29T02:08:37.718Z,100835.56
2023-12-29T02:11:06.460Z,100840.97
2023-12-29T02:13:34.805Z,100837.19
2023-12-29T02:16:24.128Z,100835.38
2023-12-29T02:18:53.104Z,100835.00
2023-12-29T02:21:25.793Z,100835.38
2023-12-29T02:23:54.025Z,100832.41
2023-12-29T02:26:28.156Z,100830.84
2023-12-29T02:29:04.225Z,100829.97
2023-12-29T02:31:35.208Z,100823.41
2023-12-29T02:34:07.511Z,100829.56
2023-12-29T02:36:43.662Z,100821.41
2023-12-29T02:39:12.621Z,100811.22
2023-12-29T02:41:42.303Z,100816.97
2023-12-29T02:44:10.300Z,100822.13
2023-12-29T02:46:38.391Z,100815.59
2023-12-29T02:49:06.807Z,100817.19
2023-12-29T02:51:57.144Z,100816.00
2023-12-29T02:54:25.482Z,100824.88
2023-12-29T02:56:55.280Z,100822.06
2023-12-29T02:59:23.734Z,100816.00
2023-12-29T03:01:52.263Z,100811.03
2023-12-29T03:04:20.922Z,100812.06
2023-12-29T03:06:49.408Z,100801.56
2023-12-29T03:09:17.783Z,100793.88
2023-12-29T03:11:46.111Z,100798.63
2023-12-29T03:14:17.244Z,100793.22
2023-12-29T03:16:45.635Z,100783.63
2023-12-29T03:19:14.006Z,100790.25
2023-12-29T03:21:42.159Z,100795.59
2023-12-29T03:24:10.628Z,100792.25
2023-12-29T03:26:38.962Z,100790.00
2023-12-29T03:29:07.348Z,100791.44
2023-12-29T03:31:36.853Z,100795.66
2023-12-29T03:34:05.220Z,100802.50
2023-12-29T03:36:33.650Z,100807.97
2023-12-29T03:39:01.863Z,100808.19
2023-12-29T03:41:30.241Z,100811.03
2023-12-29T03:43:58.673Z,100795.91
2023-12-29T03:46:27.231Z,100789.41
2023-12-29T03:48:56.784Z,100791.88
2023-12-29T03:51:25.073Z,100797.19
2023-12-29T03:53:53.198Z,100802.97
2023-12-29T03:56:21.282Z,100809.56
2023-12-29T03:58:49.783Z,100824.03
2023-12-29T04:01:20.086Z,100810.44
2023-12-29T04:03:48.874Z,100802.03
2023-12-29T04:06:18.612Z,100802.03
2023-12-29T04:08:46.825Z,100802.13
2023-12-29T04:11:14.893Z,100808.13
2023-12-29T04:13:43.730Z,100805.25
2023-12-29T04:16:12.308Z,100803.34
2023-12-29T04:18:40.781Z,100804.84
2023-12-29T04:21:10.204Z,100811.88
2023-12-29T04:23:39.566Z,100808.75
2023-12-29T04:26:07.580Z,100822.19
2023-12-29T04:28:35.887Z,100816.88
2023-12-29T04:31:05.202Z,100817.94
2023-12-29T04:33:33.725Z,100820.19
2023-12-29T04:36:01.864Z,100812.06
2023-12-29T04:38:30.394Z,100815.00
2023-12-29T04:40:59.766Z,100821.81
2023-12-29T04:43:28.112Z,100807.97
2023-12-29T04:45:58.236Z,100817.59
2023-12-29T04:48:26.394Z,100812.72
2023-12-29T04:50:54.611Z,100796.44
2023-12-29T04:53:22.626Z,100806.75
2023-12-29T04:55:50.639Z,100805.13
2023-12-29T04:58:20.282Z,100810.13
2023-12-29T05:00:48.687Z,100804.44
2023-12-29T05:03:17.034Z,100806.53
2023-12-29T05:05:45.346Z,100811.03
2023-12-29T05:08:13.616Z,100814.03
2023-12-29T05:10:41.688Z,100813.34
2023-12-29T05:13:09.846Z,100816.47
2023-12-29T05:15:39.317Z,100826.41
2023-12-29T05:18:08.157Z,100818.31
2023-12-29T05:20:36.233Z,100812.44
2023-12-29T05:23:04.289Z,100797.53
2023-12-29T05:25:32.570Z,100819.09
2023-12-29T05:28:01.254Z,100830.09
2023-12-29T05:30:32.768Z,100817.28
2023-12-29T05:33:02.349Z,100821.97
2023-12-29T05:35:30.581Z,100828.47
2023-12-29T05:37:58.905Z,100830.78
2023-12-29T05:40:27.447Z,100826.38
2023-12-29T05:42:55.747Z,100837.03
2023-12-29T05:45:24.065Z,100836.34
2023-12-29T05:47:52.253Z,100838.03
2023-12-29T05:50:21.961Z,100845.19
2023-12-29T05:52:52.786Z,100846.00
2023-12-29T05:55:21.409Z,100838.56
2023-12-29T05:57:49.937Z,100838.56
2023-12-29T06:00:18.729Z,100837.72
2023-12-29T06:02:46.975Z,100848.66
2023-12-29T06:05:15.486Z,100846.41
2023-12-29T06:07:45.245Z,100850.88
2023-12-29T06:10:14.029Z,100839.75
2023-12-29T06:12:42.408Z,100844.22
2023-12-29T06:15:13.265Z,100851.09
2023-12-29T06:17:43.276Z,100861.00
2023-12-29T06:20:13.465Z,100852.56
2023-12-29T06:22:42.272Z,100855.72
2023-12-29T06:25:13.214Z,100845.66
2023-12-29T06:27:42.214Z,100841.22
2023-12-29T06:30:11.983Z,100847.69
2023-12-29T06:32:41.301Z,100839.00
2023-12-29T06:35:11.241Z,100839.63
2023-12-29T06:37:40.595Z,100847.69
2023-12-29T06:40:10.283Z,100851.88
2023-12-29T06:42:39.893Z,100846.19
2023-12-29T06:45:10.331Z,100854.03
2023-12-29T06:47:38.579Z,100859.50
2023-12-29T06:50:08.394Z,100860.69
2023-12-29T06:52:37.001Z,100860.88
2023-12-29T06:55:05.954Z,100856.31
2023-12-29T06:57:34.014Z,100853.97
2023-12-29T07:00:03.671Z,100851.50
2023-12-29T07:02:31.947Z,100854.63
2023-12-29T07:05:00.090Z,100852.09
2023-12-29T07:07:28.463Z,100849.84
2023-12-29T07:09:56.622Z,100856.81
2023-12-29T07:12:24.771Z,100863.03
2023-12-29T07:14:54.448Z,100854.88
2023-12-29T07:17:24.883Z,100854.78
2023-12-29T07:19:53.024Z,100850.84
2023-12-29T07:22:21.297Z,100857.69
2023-12-29T07:24:49.642Z,100864.06
2023-12-29T07:27:17.773Z,100859.88
2023-12-29T07:29:46.069Z,100864.50
2023-12-29T07:32:14.533Z,100866.66
2023-12-29T07:34:45.573Z,100861.66
2023-12-29T07:37:14.272Z,100859.69
2023-12-29T07:39:42.571Z,100854.69
2023-12-29T07:42:11.317Z,100862.28
2023-12-29T07:44:39.328Z,100853.22
2023-12-29T07:47:07.681Z,100853.84
2023-12-29T07:49:36.093Z,100861.19
2023-12-29T07:52:06.416Z,100856.22
2023-12-29T07:54:35.026Z,100854.88
2023-12-29T07:57:03.792Z,100857.19
2023-12-29T07:59:32.168Z,100863.28
2023-12-29T08:02:00.448Z,100857.19
2023-12-29T08:04:28.707Z,100854.88
2023-12-29T08:06:56.882Z,100853.06
2023-12-29T08:09:27.543Z,100865.03
2023-12-29T08:11:55.818Z,100858.97
2023-12-29T08:14:24.380Z,100869.34
2023-12-29T08:16:52.394Z,100864.63
2023-12-29T08:19:20.463Z,100861.38
2023-12-29T08:21:49.350Z,100860.09
2023-12-29T08:24:18.200Z,100853.50
2023-12-29T08:26:49.672Z,100872.47
2023-12-29T08:29:20.185Z,100876.47
2023-12-29T08:31:49.040Z,100865.53
2023-12-29T08:34:18.426Z,100874.06
2023-12-29T08:36:48.635Z,100879.88
2023-12-29T08:39:17.157Z,100877.84
2023-12-29T08:41:45.194Z,100883.47
2023-12-29T08:44:15.876Z,100881.56
2023-12-29T08:46:44.284Z,100876.97
2023-12-29T08:49:12.617Z,100880.03
2023-12-29T08:51:40.941Z,100869.31
2023-12-29T08:54:09.216Z,100878.16
2023-12-29T08:56:37.592Z,100869.72
2023-12-29T08:59:05.903Z,100869.63
2023-12-29T09:01:35.787Z,100867.50
2023-12-29T09:04:03.940Z,100862.72
2023-12-29T09:06:32.065Z,100872.38
2023-12-29T09:09:00.191Z,100876.75
2023-12-29T09:11:28.814Z,100880.28
2023-12-29T09:13:57.080Z,100875.53
2023-12-29T09:16:25.419Z,100883.09
2023-12-29T09:18:54.890Z,100876.13
2023-12-29T09:21:23.951Z,100866.09
2023-12-29T09:23:52.683Z,100856.72
2023-12-29T09:26:20.723Z,100851.19
2023-12-29T09:28:49.588Z,100863.56
2023-12-29T09:31:17.970Z,100863.31
2023-12-29T09:33:46.392Z,100866.19
2023-12-29T09:36:16.097Z,100865.16
2023-12-29T09:38:47.401Z,100871.13
2023-12-29T09:41:17.388Z,100875.03
2023-12-29T09:43:50.602Z,100873.97
2023-12-29T09:46:20.049Z,100870.69
2023-12-29T09:48:49.535Z,100864.97
2023-12-29T09:51:23.732Z,100854.75
2023-12-29T09:53:52.971Z,100861.25
2023-12-29T09:56:21.598Z,100859.81
2023-12-29T09:58:50.662Z,100853.13
2023-12-29T10:01:20.711Z,100845.03
2023-12-29T10:03:49.566Z,100833.47
2023-12-29T10:06:23.365Z,100835.94
2023-12-29T10:08:52.181Z,100830.66
2023-12-29T10:11:23.073Z,100832.06
2023-12-29T10:13:53.106Z,100825.00
2023-12-29T10:16:30.283Z,100824.97
2023-12-29T10:19:05.998Z,100820.81
2023-12-29T10:21:43.276Z,100822.44
2023-12-29T10:24:18.881Z,100820.38
2023-12-29T10:26:47.374Z,100813.84
2023-12-29T10:29:17.315Z,100817.16
2023-12-29T10:31:47.129Z,100811.78
2023-12-29T10:34:23.591Z,100808.97
2023-12-29T10:36:54.238Z,100805.81
2023-12-29T10:39:22.474Z,100807.72
2023-12-29T10:41:50.765Z,100799.00
2023-12-29T10:44:19.175Z,100796.00
2023-12-29T10:46:47.179Z,100789.25
2023-12-29T10:49:16.229Z,100787.63
2023-12-29T10:51:44.843Z,100792.19
2023-12-29T10:54:22.201Z,100778.13
2023-12-29T10:57:03.540Z,100775.16
2023-12-29T10:59:31.597Z,100777.59
2023-12-29T11:02:07.063Z,100785.66
2023-12-29T11:04:36.003Z,100776.91
2023-12-29T11:07:04.616Z,100772.56
2023-12-29T11:09:35.852Z,100767.75
2023-12-29T11:12:05.580Z,100761.94
2023-12-29T11:14:34.812Z,100754.25
2023-12-29T11:17:04.593Z,100754.25
2023-12-29T11:19:34.123Z,100753.00
2023-12-29T11:22:03.738Z,100754.72
2023-12-29T11:24:38.412Z,100749.75
2023-12-29T11:27:12.881Z,100752.22
2023-12-29T11:29:43.875Z,100750.91
2023-12-29T11:32:18.616Z,100749.97
2023-12-29T11:34:51.815Z,100737.25
2023-12-29T11:37:30.339Z,100734.69
2023-12-29T11:40:13.388Z,100732.34
2023-12-29T11:42:46.729Z,100725.41
2023-12-29T11:45:28.294Z,100721.31
2023-12-29T11:47:58.230Z,100719.94
2023-12-29T11:50:31.750Z,100721.00
2023-12-29T11:53:01.284Z,100715.16
2023-12-29T11:55:32.540Z,100703.66
2023-12-29T11:58:02.355Z,100708.22
2023-12-29T12:00:44.819Z,100703.56
2023-12-29T12:03:22.566Z,100706.72
2023-12-29T12:05:51.808Z,100703.97
2023-12-29T12:08:30.803Z,100692.59
2023-12-29T12:10:59.512Z,100688.88
2023-12-29T12:13:49.208Z,100696.72
2023-12-29T12:16:54.282Z,100686.09
2023-12-29T12:19:25.710Z,100693.78
2023-12-29T12:21:57.608Z,100680.03
2023-12-29T12:24:27.257Z,100683.84
2023-12-29T12:26:56.553Z,100673.75
2023-12-29T12:29:26.608Z,100685.34
2023-12-29T12:31:56.433Z,100678.31
2023-12-29T12:34:26.453Z,100670.75
2023-12-29T12:36:57.933Z,100667.88
2023-12-29T12:39:26.196Z,100676.38
2023-12-29T12:41:54.255Z,100672.03
2023-12-29T12:44:23.514Z,100664.25
2023-12-29T12:46:58.345Z,100671.44
2023-12-29T12:49:26.883Z,100673.25
2023-12-29T12:51:56.018Z,100673.13
2023-12-29T12:54:24.417Z,100670.06
2023-12-29T12:56:53.294Z,100671.88
2023-12-29T12:59:21.443Z,100673.69
2023-12-29T13:01:50.332Z,100670.06
2023-12-29T13:04:20.149Z,100680.25
2023-12-29T13:06:50.423Z,100674.50
2023-12-29T13:09:21.357Z,100673.41
2023-12-29T13:11:49.575Z,100660.97
2023-12-29T13:14:24.691Z,100655.09
2023-12-29T13:16:53.020Z,100650.94
2023-12-29T13:19:23.860Z,100658.63
2023-12-29T13:21:55.113Z,100651.47
2023-12-29T13:24:23.496Z,100657.28
2023-12-29T13:26:57.463Z,100651.97
2023-12-29T13:29:30.341Z,100652.91
2023-12-29T13:32:06.865Z,100648.09
2023-12-29T13:34:42.955Z,100647.47
2023-12-29T13:37:20.558Z,100651.19
2023-12-29T13:39:54.752Z,100652.56
2023-12-29T13:42:26.979Z,100658.75
2023-12-29T13:44:57.537Z,100656.69
2023-12-29T13:47:26.410Z,100654.47
2023-12-29T13:49:56.170Z,100642.28
2023-12-29T13:52:24.499Z,100646.50
2023-12-29T13:54:53.586Z,100641.41
2023-12-29T13:57:32.346Z,100643.94
2023-12-29T14:00:17.396Z,100645.00
2023-12-29T14:02:49.297Z,100640.13
2023-12-29T14:05:26.178Z,100642.16
2023-12-29T14:07:57.522Z,100641.91
2023-12-29T14:10:25.816Z,100658.38
2023-12-29T14:12:54.196Z,100668.84
2023-12-29T14:15:22.375Z,100666.16
2023-12-29T14:17:50.570Z,100669.28
2023-12-29T14:20:38.080Z,100667.78
2023-12-29T14:23:06.905Z,100661.78
2023-12-29T14:25:38.029Z,100659.41
2023-12-29T14:28:16.086Z,100646.56
2023-12-29T14:30:44.468Z,100657.09
2023-12-29T14:33:12.726Z,100652.00
2023-12-29T14:35:42.791Z,100655.63
2023-12-29T14:38:12.838Z,100656.03
2023-12-29T14:40:40.861Z,100663.94
2023-12-29T14:43:09.165Z,100676.75
2023-12-29T14:45:37.815Z,100679.19
2023-12-29T14:48:07.434Z,100676.06
2023-12-29T14:50:36.118Z,100673.22
2023-12-29T14:53:06.144Z,100682.59
2023-12-29T14:55:34.429Z,100684.19
2023-12-29T14:58:03.071Z,100685.53
2023-12-29T15:00:31.496Z,100686.38
2023-12-29T15:02:59.932Z,100686.72
2023-12-29T15:05:28.261Z,100688.66
2023-12-29T15:07:56.352Z,100693.97
2023-12-29T15:10:26.124Z,100702.19
2023-12-29T15:12:54.388Z,100693.84
2023-12-29T15:15:22.599Z,100688.66
2023-12-29T15:17:50.739Z,100694.47
2023-12-29T15:20:19.010Z,100700.03
2023-12-29T15:22:47.317Z,100700.16
2023-12-29T15:25:16.845Z,100698.56
2023-12-29T15:27:46.333Z,100701.88
2023-12-29T15:30:15.034Z,100706.03
2023-12-29T15:32:44.393Z,100699.53
2023-12-29T15:35:12.935Z,100697.63
2023-12-29T15:37:40.924Z,100701.69
2023-12-29T15:40:10.206Z,100695.78
2023-12-29T15:42:38.425Z,100704.44
2023-12-29T15:45:08.765Z,100707.97
2023-12-29T15:47:37.124Z,100711.97
2023-12-29T15:50:05.950Z,100717.53
2023-12-29T15:52:34.188Z,100715.19
2023-12-29T15:55:02.176Z,100715.13
2023-12-29T15:57:30.232Z,100710.19
2023-12-29T15:59:59.881Z,100720.25
2023-12-29T16:02:29.496Z,100716.88
2023-12-29T16:04:57.874Z,100720.41
2023-12-29T16:07:26.164Z,100718.09
2023-12-29T16:09:54.509Z,100704.78
2023-12-29T16:12:22.552Z,100703.22
2023-12-29T16:14:50.611Z,100703.09
2023-12-29T16:17:18.985Z,100703.22
2023-12-29T16:19:48.779Z,100691.06
2023-12-29T16:22:21.194Z,100691.25
2023-12-29T16:24:52.040Z,100693.59
2023-12-29T16:27:20.505Z,100717.31
2023-12-29T16:29:48.774Z,100723.97
2023-12-29T16:32:22.645Z,100727.44
2023-12-29T16:34:52.317Z,100712.91
2023-12-29T16:37:20.408Z,100697.28
2023-12-29T16:39:48.481Z,100692.34
2023-12-29T16:42:18.775Z,100691.59
2023-12-29T16:44:46.864Z,100700.44
2023-12-29T16:47:15.870Z,100703.03
2023-12-29T16:49:44.337Z,100698.56
2023-12-29T16:52:14.077Z,100701.63
2023-12-29T16:54:42.914Z,100690.63
2023-12-29T16:57:12.536Z,100684.66
2023-12-29T16:59:42.231Z,100683.38
2023-12-29T17:02:11.840Z,100677.47
2023-12-29T17:04:40.731Z,100676.84
2023-12-29T17:07:10.842Z,100673.13
2023-12-29T17:09:42.014Z,100675.56
2023-12-29T17:12:10.750Z,100678.38
2023-12-29T17:14:39.951Z,100673.69
2023-12-29T17:17:08.524Z,100671.72
2023-12-29T17:19:36.999Z,100678.97
2023-12-29T17:22:07.121Z,100666.44
2023-12-29T17:24:39.864Z,100667.41
2023-12-29T17:27:09.542Z,100671.13
2023-12-29T17:29:39.781Z,100671.88
2023-12-29T17:32:07.993Z,100669.63
2023-12-29T17:34:36.528Z,100663.16
2023-12-29T17:37:05.159Z,100667.00
2023-12-29T17:39:33.769Z,100670.63
2023-12-29T17:42:01.862Z,100669.75
2023-12-29T17:44:31.419Z,100671.69
2023-12-29T17:46:59.662Z,100683.53
2023-12-29T17:49:29.714Z,100680.22
2023-12-29T17:51:59.489Z,100681.06
2023-12-29T17:54:27.941Z,100674.28
2023-12-29T17:56:56.054Z,100673.81
2023-12-29T17:59:24.441Z,100678.41
2023-12-29T18:01:56.299Z,100671.63
2023-12-29T18:04:24.672Z,100670.25
2023-12-29T18:07:00.656Z,100669.38
2023-12-29T18:09:34.593Z,100666.59
2023-12-29T18:12:02.902Z,100664.69
2023-12-29T18:14:30.879Z,100669.47
2023-12-29T18:17:00.923Z,100677.34
2023-12-29T18:19:29.090Z,100673.66
2023-12-29T18:21:57.766Z,100685.56
2023-12-29T18:24:25.865Z,100678.66
2023-12-29T18:26:54.182Z,100676.41
2023-12-29T18:29:23.376Z,100687.13
2023-12-29T18:32:17.653Z,100681.94
2023-12-29T18:34:41.195Z,100680.44
2023-12-29T18:37:09.634Z,100681.75
2023-12-29T18:39:38.445Z,100670.34
2023-12-29T18:42:07.140Z,100676.97
2023-12-29T18:44:38.321Z,100675.88
2023-12-29T18:47:07.095Z,100676.19
2023-12-29T18:49:35.754Z,100676.47
2023-12-29T18:52:06.118Z,100673.84
2023-12-29T18:54:34.752Z,100675.25
2023-12-29T18:57:03.995Z,100674.09
2023-12-29T18:59:32.231Z,100678.88
2023-12-29T19:02:00.771Z,100660.25
2023-12-29T19:04:29.252Z,100662.28
2023-12-29T19:06:57.398Z,100669.91
2023-12-29T19:09:26.925Z,100668.34
2023-12-29T19:11:56.007Z,100670.25
2023-12-29T19:14:24.420Z,100667.50
2023-12-29T19:16:53.753Z,100666.22
2023-12-29T19:19:23.855Z,100667.31
2023-12-29T19:21:52.201Z,100667.50
2023-12-29T19:24:22.198Z,100673.56
2023-12-29T19:26:51.999Z,100666.97
2023-12-29T19:29:20.145Z,100657.94
2023-12-29T19:31:48.677Z,100658.88
2023-12-29T19:34:20.149Z,100652.19
2023-12-29T19:36:48.656Z,100650.63
2023-12-29T19:39:16.978Z,100646.88
2023-12-29T19:41:45.601Z,100646.34
2023-12-29T19:44:15.638Z,100648.50
2023-12-29T19:46:44.284Z,100648.25
2023-12-29T19:49:12.911Z,100664.66
2023-12-29T19:51:41.327Z,100655.72
2023-12-29T19:54:11.811Z,100659.22
2023-12-29T19:56:40.806Z,100652.88
2023-12-29T19:59:09.085Z,100651.47
2023-12-29T20:01:47.694Z,100649.75
2023-12-29T20:04:16.787Z,100658.59
2023-12-29T20:06:45.263Z,100660.91
2023-12-29T20:09:13.419Z,100656.88
2023-12-29T20:11:41.883Z,100658.91
2023-12-29T20:14:13.050Z,100648.06
2023-12-29T20:16:42.629Z,100646.16
2023-12-29T20:19:11.760Z,100647.34
2023-12-29T20:21:40.494Z,100649.53
2023-12-29T20:24:11.371Z,100654.03
2023-12-29T20:26:41.959Z,100642.88
2023-12-29T20:29:11.100Z,100656.47
2023-12-29T20:31:39.698Z,100645.19
2023-12-29T20:34:09.359Z,100644.69
2023-12-29T20:36:38.099Z,100645.63
2023-12-29T20:39:06.439Z,100642.13
2023-12-29T20:41:36.018Z,100642.53
2023-12-29T20:44:04.511Z,100642.25
2023-12-29T20:46:32.889Z,100629.66
2023-12-29T20:49:01.078Z,100631.91
2023-12-29T20:51:31.598Z,100627.06
2023-12-29T20:54:00.309Z,100630.34
2023-12-29T20:56:28.527Z,100629.91
2023-12-29T20:58:57.107Z,100624.69
2023-12-29T21:01:26.106Z,100627.56
2023-12-29T21:03:54.566Z,100629.06
2023-12-29T21:06:23.008Z,100630.97
2023-12-29T21:08:59.384Z,100623.00
2023-12-29T21:11:27.886Z,100621.41
2023-12-29T21:13:56.176Z,100628.50
2023-12-29T21:16:24.210Z,100623.41
2023-12-29T21:18:53.110Z,100625.97
2023-12-29T21:21:21.599Z,100628.44
2023-12-29T21:23:52.523Z,100624.81
2023-12-29T21:26:23.712Z,100628.84
2023-12-29T21:28:51.841Z,100630.66
2023-12-29T21:31:21.505Z,100633.53
2023-12-29T21:33:49.677Z,100631.84
2023-12-29T21:36:24.990Z,100633.94
2023-12-29T21:38:54.187Z,100630.75
2023-12-29T21:41:24.203Z,100630.56
2023-12-29T21:43:53.546Z,100631.59
2023-12-29T21:46:22.408Z,100627.66
2023-12-29T21:48:52.231Z,100629.28
2023-12-29T21:51:25.077Z,100625.44
2023-12-29T21:53:53.423Z,100629.06
2023-12-29T21:56:21.489Z,100630.44
2023-12-29T21:58:53.836Z,100621.06
2023-12-29T22:01:32.757Z,100625.22
2023-12-29T22:04:01.478Z,100625.06
2023-12-29T22:06:30.807Z,100624.44
2023-12-29T22:08:59.317Z,100630.41
2023-12-29T22:11:27.393Z,100618.66
2023-12-29T22:13:56.942Z,100622.88
2023-12-29T22:16:26.024Z,100630.41
2023-12-29T22:18:54.702Z,100615.25
2023-12-29T22:21:22.867Z,100606.66
2023-12-29T22:23:51.145Z,100620.44
2023-12-29T22:26:20.776Z,100620.78
2023-12-29T22:28:51.235Z,100615.16
2023-12-29T22:31:21.664Z,100608.16
2023-12-29T22:33:50.518Z,100602.75
2023-12-29T22:36:20.476Z,100594.56
2023-12-29T22:38:49.926Z,100601.47
2023-12-29T22:41:19.957Z,100605.91
2023-12-29T22:43:49.181Z,100606.47
2023-12-29T22:46:22.307Z,100614.59
2023-12-29T22:48:55.201Z,100611.72
2023-12-29T22:51:23.742Z,100601.88
2023-12-29T22:53:52.032Z,100606.22
2023-12-29T22:56:22.741Z,100612.41
2023-12-29T22:58:51.484Z,100618.00
2023-12-29T23:01:19.809Z,100620.34
2023-12-29T23:03:48.671Z,100615.13
2023-12-29T23:06:18.491Z,100606.25
2023-12-29T23:08:46.850Z,100602.19
2023-12-29T23:11:15.152Z,100592.34
2023-12-29T23:13:43.550Z,100587.97
2023-12-29T23:16:12.045Z,100589.50
2023-12-29T23:18:43.121Z,100586.00
2023-12-29T23:21:14.295Z,100586.44
2023-12-29T23:23:44.010Z,100578.00
2023-12-29T23:26:12.427Z,100571.25
2023-12-29T23:28:40.785Z,100576.03
2023-12-29T23:31:09.949Z,100579.66
2023-12-29T23:33:38.495Z,100586.75
2023-12-29T23:36:07.430Z,100578.56
2023-12-29T23:38:35.729Z,100573.91
2023-12-29T23:41:05.773Z,100577.53
2023-12-29T23:43:34.057Z,100574.75
2023-12-29T23:46:03.352Z,100568.69
2023-12-29T23:48:31.545Z,100573.06
2023-12-29T23:50:59.782Z,100575.59
2023-12-29T23:53:28.127Z,100577.50
2023-12-29T23:55:56.226Z,100578.22
2023-12-29T23:58:25.689Z,100573.31
